Time;durP1;ratioP1;P1;durP2;ratioP2;P2;SDS_P1;SDS_P2;PMS_P1;PMS_P2;Temp;Humidity;BMP_temperature;BMP_pressure;BME280_temperature;BME280_humidity;BME280_pressure;Samples;Min_cycle;Max_cycle;Signal;HPM_P1;HPM_P2
2021/01/27 00:03:25;;;;;;;0.80;0.80;;;;;;;-1.24;76.36;97173.13;299395;202;63004;-63
2021/01/27 00:08:26;;;;;;;0.90;0.90;;;;;;;-1.28;76.56;97170.06;299395;266;63005;-62
2021/01/27 00:13:27;;;;;;;0.88;0.88;;;;;;;-1.29;76.72;97175.59;299395;235;63005;-59
2021/01/27 00:18:29;;;;;;;0.80;0.80;;;;;;;-1.20;76.22;97169.03;299395;274;63009;-62
2021/01/27 00:23:30;;;;;;;0.80;0.80;;;;;;;-1.23;77.03;97166.78;299395;202;63005;-62
2021/01/27 00:28:31;;;;;;;0.80;0.80;;;;;;;-1.25;76.60;97152.84;299394;226;64009;-61
2021/01/27 00:33:32;;;;;;;0.80;0.80;;;;;;;-1.19;76.77;97133.38;299395;219;63012;-63
2021/01/27 00:38:33;;;;;;;0.80;0.80;;;;;;;-1.15;76.37;97135.41;299395;196;63009;-57
2021/01/27 00:43:34;;;;;;;0.90;0.90;;;;;;;-1.10;76.51;97132.09;299395;202;63005;-61
2021/01/27 00:48:34;;;;;;;0.90;0.90;;;;;;;-1.12;77.39;97139.50;299395;364;63009;-58
2021/01/27 00:53:35;;;;;;;0.90;0.90;;;;;;;-1.14;77.81;97125.56;299395;200;63005;-62
2021/01/27 00:58:36;;;;;;;0.80;0.80;;;;;;;-1.04;77.44;97113.41;299395;204;63017;-62
2021/01/27 01:03:39;;;;;;;0.80;0.80;;;;;;;-1.05;77.45;97105.66;299395;212;63004;-58
2021/01/27 01:08:40;;;;;;;0.80;0.80;;;;;;;-1.06;77.55;97104.03;299395;351;63009;-60
2021/01/27 01:13:41;;;;;;;0.80;0.80;;;;;;;-1.10;77.54;97100.97;299395;219;63009;-58
2021/01/27 01:18:42;;;;;;;0.80;0.80;;;;;;;-1.07;77.57;97107.72;299395;226;63009;-60
2021/01/27 01:23:42;;;;;;;0.80;0.80;;;;;;;-1.08;78.02;97100.75;299395;230;63005;-59
2021/01/27 01:28:43;;;;;;;1.27;1.27;;;;;;;-1.07;77.78;97113.03;299395;283;63009;-62
2021/01/27 01:33:48;;;;;;;8.70;7.03;;;;;;;-1.05;77.85;97097.66;299394;207;64004;-63
2021/01/27 01:38:48;;;;;;;0.90;0.90;;;;;;;-1.01;77.68;97080.19;299417;222;63009;-62
2021/01/27 01:43:50;;;;;;;0.80;0.80;;;;;;;-1.04;77.76;97068.13;299395;222;63005;-60
2021/01/27 01:48:59;;;;;;;1.00;1.00;;;;;;;-1.09;77.91;97070.66;299395;272;63008;-59
2021/01/27 01:54:25;;;;;;;0.90;0.90;;;;;;;-1.02;77.98;97066.06;299395;205;63004;-61
2021/01/27 01:59:30;;;;;;;0.90;0.90;;;;;;;-1.15;77.76;97054.72;299417;205;63009;-58
2021/01/27 02:04:33;;;;;;;;;;;;;;;-1.15;78.22;97050.19;299996;983;6000;-58
2021/01/27 02:09:34;;;;;;;0.82;0.82;;;;;;;-1.17;78.08;97046.94;299400;256;63004;-60
2021/01/27 02:15:14;;;;;;;0.90;0.90;;;;;;;-1.17;78.20;97038.13;299395;227;63009;-58
2021/01/27 02:20:47;;;;;;;0.82;0.82;;;;;;;-1.11;78.19;97019.44;299395;269;63005;-60
2021/01/27 02:26:37;;;;;;;0.80;0.80;;;;;;;-1.09;78.16;97016.56;299395;242;63004;-63
2021/01/27 02:31:53;;;;;;;0.85;0.85;;;;;;;-1.18;78.01;97017.84;299395;209;63009;-58
2021/01/27 02:37:07;;;;;;;0.80;0.80;;;;;;;-1.23;78.47;97009.69;299395;242;63011;-59
2021/01/27 02:42:30;;;;;;;0.82;0.82;;;;;;;-1.30;78.64;97022.22;299395;241;63008;-58
2021/01/27 02:48:13;;;;;;;0.80;0.80;;;;;;;-1.25;78.52;97011.75;299395;238;63004;-62
2021/01/27 02:53:26;;;;;;;0.90;0.90;;;;;;;-1.31;78.55;96999.31;299395;276;63009;-59
2021/01/27 02:58:48;;;;;;;0.85;0.85;;;;;;;-1.33;78.58;97004.03;299395;365;63005;-62
2021/01/27 03:03:57;;;;;;;0.80;0.80;;;;;;;-1.28;78.70;97006.88;299395;218;63008;-59
2021/01/27 03:09:11;;;;;;;0.80;0.80;;;;;;;-1.26;78.77;96996.81;299395;230;63004;-58
2021/01/27 03:14:12;;;;;;;0.80;0.80;;;;;;;-1.17;78.08;97004.34;299395;229;63009;-58
2021/01/27 03:19:26;;;;;;;0.80;0.80;;;;;;;-1.30;78.75;96996.44;299395;214;63004;-57
2021/01/27 03:24:33;;;;;;;0.90;0.90;;;;;;;-1.26;78.36;96988.81;299395;208;63009;-62
2021/01/27 03:30:00;;;;;;;0.90;0.90;;;;;;;-1.21;77.96;96989.81;299395;265;63005;-63
2021/01/27 03:35:21;;;;;;;0.80;0.80;;;;;;;-1.17;77.69;96995.53;299395;228;63009;-62
2021/01/27 03:40:24;;;;;;;0.80;0.80;;;;;;;-1.21;77.82;96981.00;299395;232;63004;-58
2021/01/27 03:45:28;;;;;;;0.82;0.82;;;;;;;-1.20;77.95;96985.31;299395;212;63009;-58
2021/01/27 03:50:31;;;;;;;0.80;0.80;;;;;;;-1.24;77.96;96976.13;299417;322;63005;-62
2021/01/27 03:55:48;;;;;;;0.80;0.80;;;;;;;-1.24;78.00;96974.28;299395;269;63008;-61
2021/01/27 04:00:50;;;;;;;0.80;0.80;;;;;;;-1.19;77.21;96965.63;299395;196;63004;-58
2021/01/27 04:05:52;;;;;;;0.90;0.90;;;;;;;-1.16;77.26;96962.53;299395;225;63009;-63
2021/01/27 04:10:53;;;;;;;0.80;0.80;;;;;;;-1.16;77.27;96962.53;299395;257;63011;-62
2021/01/27 04:15:54;;;;;;;0.90;0.90;;;;;;;-1.02;76.59;96956.06;299395;210;63009;-62
2021/01/27 04:20:55;;;;;;;0.90;0.90;;;;;;;-1.10;77.25;96951.03;299395;335;63005;-59
2021/01/27 04:25:59;;;;;;;0.80;0.80;;;;;;;-1.13;77.25;96930.16;299395;266;63021;-58
2021/01/27 04:31:02;;;;;;;0.80;0.80;;;;;;;-1.11;77.01;96917.44;299417;205;63004;-58
2021/01/27 04:36:04;;;;;;;0.80;0.80;;;;;;;-0.99;76.42;96904.22;299373;259;63009;-63
2021/01/27 04:41:08;;;;;;;0.80;0.80;;;;;;;-1.05;76.03;96884.63;299395;220;63005;-64
2021/01/27 04:46:37;;;;;;;0.90;0.90;;;;;;;-1.09;75.91;96872.78;299395;221;63009;-64
2021/01/27 04:52:03;;;;;;;0.90;0.90;;;;;;;-1.00;75.34;96876.75;299395;203;63005;-64
2021/01/27 04:57:26;;;;;;;;;;;;;;;-1.02;75.49;96884.97;299996;982;6005;-63
2021/01/27 05:03:11;;;;;;;0.80;0.80;;;;;;;-1.16;76.31;96874.69;299400;204;63004;-57
2021/01/27 05:08:23;;;;;;;0.80;0.80;;;;;;;-1.20;76.10;96876.16;299395;255;63009;-57
2021/01/27 05:13:37;;;;;;;0.80;0.80;;;;;;;-1.17;76.37;96865.06;299395;229;63005;-58
2021/01/27 05:18:38;;;;;;;0.90;0.90;;;;;;;-1.15;76.20;96850.50;299395;228;63009;-63
2021/01/27 05:23:38;;;;;;;0.90;0.90;;;;;;;-1.06;75.17;96835.88;299395;288;63004;-63
2021/01/27 05:28:44;;;;;;;0.88;0.88;;;;;;;-1.10;75.82;96825.88;299394;203;64009;-62
2021/01/27 05:33:54;;;;;;;0.90;0.90;;;;;;;-1.06;75.93;96824.41;299395;220;63005;-64
2021/01/27 05:39:13;;;;;;;0.90;0.90;;;;;;;-1.03;75.55;96829.25;299395;311;63009;-63
2021/01/27 05:44:15;;;;;;;0.85;0.85;;;;;;;-1.01;75.05;96824.53;299395;202;63005;-63
2021/01/27 05:49:29;;;;;;;0.80;0.80;;;;;;;-1.06;75.20;96819.09;299395;290;63020;-62
2021/01/27 05:54:30;;;;;;;0.80;0.80;;;;;;;-1.08;75.61;96813.16;299417;199;63008;-59
2021/01/27 05:59:31;;;;;;;0.90;0.90;;;;;;;-1.02;75.00;96809.59;299396;209;63009;-58
2021/01/27 06:04:34;;;;;;;0.80;0.80;;;;;;;-0.90;74.73;96818.47;299396;215;63012;-58
2021/01/27 06:09:41;;;;;;;1.10;1.10;;;;;;;-0.94;74.57;96833.28;299396;220;63009;-58
2021/01/27 06:14:43;;;;;;;0.80;0.80;;;;;;;-0.99;74.06;96830.47;299396;230;63009;-58
2021/01/27 06:20:16;;;;;;;1.00;1.00;;;;;;;-0.88;73.83;96800.44;299396;219;63009;-58
2021/01/27 06:25:55;;;;;;;0.80;0.80;;;;;;;-0.82;73.47;96799.53;299396;199;63004;-57
2021/01/27 06:31:36;;;;;;;0.80;0.80;;;;;;;-0.82;72.92;96796.88;299396;260;63009;-58
2021/01/27 06:37:03;;;;;;;0.80;0.80;;;;;;;-0.84;72.78;96800.81;299396;234;63004;-63
2021/01/27 06:42:22;;;;;;;0.90;0.90;;;;;;;-0.86;73.44;96803.69;299396;215;63009;-63
2021/01/27 06:48:17;;;;;;;0.80;0.80;;;;;;;-0.77;73.00;96813.00;299397;229;63005;-64
2021/01/27 06:53:56;;;;;;;1.02;1.02;;;;;;;-0.93;73.70;96810.94;299397;307;63009;-57
2021/01/27 06:59:43;;;;;;;0.80;0.80;;;;;;;-0.88;73.05;96805.75;299396;358;63011;-57
2021/01/27 07:05:15;;;;;;;0.80;0.80;;;;;;;-0.89;73.63;96809.44;299418;228;63009;-64
2021/01/27 07:10:58;;;;;;;0.80;0.80;;;;;;;-0.91;73.64;96814.19;299396;260;63005;-62
2021/01/27 07:16:52;;;;;;;0.70;0.70;;;;;;;-0.95;74.21;96818.31;299396;205;63014;-57
2021/01/27 07:22:35;;;;;;;0.80;0.80;;;;;;;-0.80;73.62;96818.78;299396;202;63004;-65
2021/01/27 07:28:04;;;;;;;0.85;0.85;;;;;;;-0.78;73.41;96827.38;299396;236;63009;-61
2021/01/27 07:33:15;;;;;;;0.88;0.88;;;;;;;-0.70;73.48;96831.59;299396;221;63005;-57
2021/01/27 07:38:23;;;;;;;0.80;0.80;;;;;;;-0.68;73.59;96837.47;299396;243;63009;-58
2021/01/27 07:43:57;;;;;;;0.90;0.90;;;;;;;-0.59;73.43;96851.31;299396;203;63005;-64
2021/01/27 07:49:04;;;;;;;0.90;0.90;;;;;;;-0.48;73.58;96842.59;299395;220;63009;-62
2021/01/27 07:54:11;;;;;;;0.80;0.80;;;;;;;-0.56;75.07;96843.69;299395;211;63004;-63
2021/01/27 07:59:39;;;;;;;0.80;0.80;;;;;;;-0.68;76.91;96843.63;299395;364;63009;-60
2021/01/27 08:04:47;;;;;;;0.80;0.80;;;;;;;-0.87;78.86;96831.34;299395;334;63005;-64
2021/01/27 08:09:50;;;;;;;0.80;0.80;;;;;;;-0.91;79.03;96850.66;299395;277;63009;-64
2021/01/27 08:15:33;;;;;;;0.80;0.80;;;;;;;-0.86;78.94;96856.97;299395;225;63004;-63
2021/01/27 08:20:41;;;;;;;0.80;0.80;;;;;;;-0.72;78.68;96868.28;299395;222;63009;-64
2021/01/27 08:25:57;;;;;;;0.80;0.80;;;;;;;-0.87;79.98;96858.00;299395;212;63005;-64
2021/01/27 08:31:27;;;;;;;0.80;0.80;;;;;;;-0.84;80.39;96867.41;299395;202;63009;-64
2021/01/27 08:37:06;;;;;;;0.80;0.80;;;;;;;-0.75;80.15;96858.91;299395;262;63004;-63
2021/01/27 08:42:26;;;;;;;0.80;0.80;;;;;;;-0.88;80.57;96863.53;299394;214;64013;-66
2021/01/27 08:47:39;;;;;;;0.80;0.80;;;;;;;-0.92;81.09;96863.16;299395;214;63005;-62
2021/01/27 08:52:42;;;;;;;0.80;0.80;;;;;;;-0.88;80.80;96860.87;299395;212;63009;-58
2021/01/27 08:58:29;;;;;;;0.80;0.80;;;;;;;-0.95;81.64;96855.63;299395;196;63005;-65
2021/01/27 09:04:03;;;;;;;0.80;0.80;;;;;;;-0.96;81.82;96846.00;299417;281;63009;-62
2021/01/27 09:09:31;;;;;;;0.80;0.80;;;;;;;-0.97;82.37;96838.22;299395;203;63004;-56
2021/01/27 09:14:34;;;;;;;0.80;0.80;;;;;;;-0.94;82.14;96843.13;299395;218;63009;-57
2021/01/27 09:19:37;;;;;;;0.80;0.80;;;;;;;-1.07;83.03;96849.41;299395;209;63005;-63
2021/01/27 09:24:46;;;;;;;0.80;0.80;;;;;;;-0.99;82.86;96838.44;299395;323;63009;-56
2021/01/27 09:30:07;;;;;;;0.80;0.80;;;;;;;-0.99;82.88;96834.97;299395;340;63004;-62
2021/01/27 09:35:12;;;;;;;0.80;0.80;;;;;;;-1.00;83.08;96831.50;299395;226;63009;-61
2021/01/27 09:40:33;;;;;;;0.90;0.90;;;;;;;-1.02;82.62;96825.56;299417;198;63005;-57
2021/01/27 09:45:37;;;;;;;0.80;0.80;;;;;;;-1.12;83.41;96830.63;299395;206;63008;-57
2021/01/27 09:50:41;;;;;;;0.80;0.80;;;;;;;-1.12;83.73;96814.63;299394;220;64004;-55
2021/01/27 09:55:43;;;;;;;0.80;0.80;;;;;;;-1.19;83.34;96811.22;299417;329;63009;-61
2021/01/27 10:00:44;;;;;;;0.80;0.80;;;;;;;-1.20;83.81;96802.41;299395;330;63004;-57
2021/01/27 10:05:46;;;;;;;0.80;0.80;;;;;;;-1.15;83.74;96793.78;299395;208;63020;-56
2021/01/27 10:11:10;;;;;;;0.80;0.80;;;;;;;-1.09;83.64;96788.38;299395;291;63005;-63
2021/01/27 10:16:14;;;;;;;0.80;0.80;;;;;;;-1.06;83.53;96771.16;299395;221;63008;-57
2021/01/27 10:21:17;;;;;;;0.80;0.80;;;;;;;-1.10;84.26;96761.97;299395;267;63004;-57
2021/01/27 10:26:40;;;;;;;0.80;0.80;;;;;;;-0.93;83.56;96763.00;299395;355;63009;-58
2021/01/27 10:31:48;;;;;;;0.90;0.90;;;;;;;-0.82;83.46;96762.25;299395;200;63005;-63
2021/01/27 10:36:49;;;;;;;0.80;0.80;;;;;;;-0.83;83.58;96747.31;299395;197;63009;-56
2021/01/27 10:42:22;;;;;;;0.80;0.80;;;;;;;-0.68;83.10;96758.34;299395;283;63005;-68
2021/01/27 10:47:32;;;;;;;0.80;0.80;;;;;;;-0.71;82.50;96748.19;299395;207;63009;-57
2021/01/27 10:52:33;;;;;;;0.80;0.80;;;;;;;-0.72;82.53;96751.88;299395;227;63004;-57
2021/01/27 10:57:34;;;;;;;0.82;0.82;;;;;;;-0.79;82.60;96753.81;299395;264;63023;-58
2021/01/27 11:02:35;;;;;;;0.90;0.90;;;;;;;-0.72;82.46;96751.88;299395;266;63005;-57
2021/01/27 11:07:38;;;;;;;0.80;0.80;;;;;;;-0.67;82.40;96754.66;299395;222;63008;-64
2021/01/27 11:12:40;;;;;;;0.90;0.90;;;;;;;-0.75;83.44;96752.31;299395;266;63004;-65
2021/01/27 11:17:41;;;;;;;0.80;0.80;;;;;;;-0.70;82.99;96757.81;299395;227;63009;-65
2021/01/27 11:22:44;;;;;;;0.80;0.80;;;;;;;-0.67;83.37;96753.84;299395;228;63004;-56
2021/01/27 11:27:46;;;;;;;0.80;0.80;;;;;;;-0.60;82.89;96753.75;299395;203;63009;-66
2021/01/27 11:32:53;;;;;;;0.80;0.80;;;;;;;-0.58;82.84;96751.69;299395;202;63005;-66
2021/01/27 11:37:55;;;;;;;0.80;0.80;;;;;;;-0.44;81.23;96745.16;299395;313;63009;-65
2021/01/27 11:42:56;;;;;;;0.80;0.80;;;;;;;-0.36;81.66;96734.97;299395;231;63004;-66
2021/01/27 11:47:57;;;;;;;0.80;0.80;;;;;;;-0.20;80.68;96727.34;299395;248;63009;-64
2021/01/27 11:52:59;;;;;;;0.80;0.80;;;;;;;-0.27;80.51;96722.13;299395;230;63005;-58
2021/01/27 11:58:00;;;;;;;0.80;0.80;;;;;;;-0.25;79.75;96697.88;299395;202;63009;-58
2021/01/27 12:03:02;;;;;;;0.80;0.80;;;;;;;-0.46;80.93;96697.41;299395;261;63005;-62
2021/01/27 12:08:05;;;;;;;0.80;0.80;;;;;;;-0.45;81.12;96700.87;299395;335;63009;-62
2021/01/27 12:13:06;;;;;;;0.80;0.80;;;;;;;-0.47;81.33;96690.44;299395;198;63004;-69
2021/01/27 12:18:12;;;;;;;0.80;0.80;;;;;;;-0.42;82.00;96705.75;299395;218;63009;-68
2021/01/27 12:23:14;;;;;;;0.70;0.70;;;;;;;-0.28;81.80;96691.16;299395;284;63005;-64
2021/01/27 12:28:15;;;;;;;0.80;0.80;;;;;;;-0.33;81.70;96672.38;299395;224;63009;-62
2021/01/27 12:33:17;;;;;;;0.80;0.80;;;;;;;-0.14;81.04;96673.09;299395;360;63005;-56
2021/01/27 12:38:18;;;;;;;0.80;0.80;;;;;;;-0.16;81.12;96684.00;299395;227;63009;-65
2021/01/27 12:43:19;;;;;;;0.90;0.90;;;;;;;-0.22;81.42;96682.25;299395;197;63004;-66
2021/01/27 12:48:20;;;;;;;0.80;0.80;;;;;;;-0.17;81.79;96685.03;299395;199;63022;-64
2021/01/27 12:53:21;;;;;;;0.80;0.80;;;;;;;-0.27;82.10;96663.47;299395;205;63005;-70
2021/01/27 12:58:22;;;;;;;0.80;0.80;;;;;;;-0.15;82.10;96629.63;299395;210;63009;-57
2021/01/27 13:03:24;;;;;;;0.80;0.80;;;;;;;0.09;82.36;96619.75;299395;196;63005;-70
2021/01/27 13:08:25;;;;;;;0.80;0.80;;;;;;;0.19;81.19;96608.50;299395;374;63009;-66
2021/01/27 13:13:27;;;;;;;0.80;0.80;;;;;;;-0.04;82.57;96604.81;299395;196;63004;-57
2021/01/27 13:18:28;;;;;;;0.80;0.80;;;;;;;-0.04;82.58;96602.16;299395;226;63009;-67
2021/01/27 13:23:29;;;;;;;0.80;0.80;;;;;;;-0.10;83.35;96600.41;299395;237;63005;-66
2021/01/27 13:28:30;;;;;;;0.80;0.80;;;;;;;-0.04;82.69;96596.81;299395;229;63009;-66
2021/01/27 13:33:31;;;;;;;0.80;0.80;;;;;;;-0.07;82.56;96583.94;299395;253;63004;-63
2021/01/27 13:38:34;;;;;;;0.80;0.80;;;;;;;-0.09;82.32;96586.03;299395;287;63009;-66
2021/01/27 13:43:35;;;;;;;0.80;0.80;;;;;;;-0.16;83.13;96585.34;299395;219;63004;-65
2021/01/27 13:48:36;;;;;;;0.80;0.80;;;;;;;-0.04;82.66;96577.34;299395;222;63009;-68
2021/01/27 13:53:38;;;;;;;0.80;0.80;;;;;;;-0.05;81.84;96576.53;299395;218;63005;-68
2021/01/27 13:58:39;;;;;;;0.80;0.80;;;;;;;-0.07;81.73;96575.94;299395;280;63008;-66
2021/01/27 14:03:41;;;;;;;0.80;0.80;;;;;;;-0.13;81.64;96579.53;299395;221;63004;-66
2021/01/27 14:08:42;;;;;;;0.80;0.80;;;;;;;-0.16;81.17;96580.00;299395;242;63009;-69
2021/01/27 14:13:45;;;;;;;0.80;0.80;;;;;;;-0.19;81.24;96567.12;299395;264;63004;-66
2021/01/27 14:18:47;;;;;;;0.70;0.70;;;;;;;-0.17;81.18;96559.72;299395;212;63009;-68
2021/01/27 14:23:48;;;;;;;0.80;0.80;;;;;;;-0.15;81.34;96554.97;299395;199;63005;-68
2021/01/27 14:28:49;;;;;;;0.80;0.80;;;;;;;-0.11;80.55;96549.97;299395;223;63009;-67
2021/01/27 14:33:50;;;;;;;0.80;0.80;;;;;;;-0.19;80.87;96553.00;299394;216;64009;-67
2021/01/27 14:38:52;;;;;;;0.90;0.90;;;;;;;-0.23;80.68;96547.31;299395;261;63009;-66
2021/01/27 14:43:53;;;;;;;0.90;0.90;;;;;;;-0.14;80.55;96550.44;299395;315;63004;-66
2021/01/27 14:48:54;;;;;;;0.80;0.80;;;;;;;-0.27;82.09;96545.34;299395;229;63009;-66
2021/01/27 14:53:55;;;;;;;0.80;0.80;;;;;;;-0.22;81.21;96553.44;299395;242;63005;-65
2021/01/27 14:58:56;;;;;;;0.80;0.80;;;;;;;-0.28;81.53;96563.19;299395;219;63005;-65
2021/01/27 15:03:57;;;;;;;0.80;0.80;;;;;;;-0.14;81.58;96559.25;299395;206;63004;-68
2021/01/27 15:08:58;;;;;;;0.80;0.80;;;;;;;-0.09;80.88;96562.03;299395;314;63009;-70
2021/01/27 15:13:59;;;;;;;0.80;0.80;;;;;;;-0.27;81.91;96567.47;299395;233;63004;-68
2021/01/27 15:19:00;;;;;;;0.80;0.80;;;;;;;-0.29;82.12;96564.22;299395;196;63009;-65
2021/01/27 15:24:01;;;;;;;0.80;0.80;;;;;;;-0.24;82.53;96547.53;299395;256;63005;-66
2021/01/27 15:29:02;;;;;;;0.80;0.80;;;;;;;-0.22;82.79;96546.25;299395;231;63008;-68
2021/01/27 15:34:04;;;;;;;0.80;0.80;;;;;;;-0.24;83.10;96561.69;299395;206;63004;-67
2021/01/27 15:39:05;;;;;;;0.80;0.80;;;;;;;-0.16;82.73;96566.66;299395;328;63009;-65
2021/01/27 15:44:06;;;;;;;0.80;0.80;;;;;;;-0.24;83.25;96561.69;299395;196;63004;-66
2021/01/27 15:49:07;;;;;;;0.80;0.80;;;;;;;-0.28;83.42;96563.19;299395;220;63009;-65
2021/01/27 15:54:08;;;;;;;0.80;0.80;;;;;;;-0.28;83.85;96552.53;299395;220;63005;-68
2021/01/27 15:59:10;;;;;;;0.80;0.80;;;;;;;-0.33;84.31;96568.41;299395;223;63008;-68
2021/01/27 16:04:12;;;;;;;0.80;0.80;;;;;;;-0.39;85.24;96574.69;299395;286;63004;-68
2021/01/27 16:09:15;;;;;;;0.80;0.80;;;;;;;-0.38;85.34;96586.97;299395;241;63009;-67
2021/01/27 16:14:16;;;;;;;0.80;0.80;;;;;;;-0.38;85.33;96570.97;299395;268;63005;-58
2021/01/27 16:19:17;;;;;;;0.85;0.85;;;;;;;-0.37;85.57;96561.94;299395;198;63009;-67
2021/01/27 16:24:18;;;;;;;0.80;0.80;;;;;;;-0.34;86.01;96570.25;299395;230;63000;-68
2021/01/27 16:29:19;;;;;;;0.80;0.80;;;;;;;-0.26;85.58;96573.63;299395;202;63009;-57
2021/01/27 16:34:23;;;;;;;0.80;0.80;;;;;;;-0.29;85.34;96580.22;299395;219;63004;-66
2021/01/27 16:39:24;;;;;;;0.90;0.90;;;;;;;-0.29;85.21;96585.56;299377;210;125009;-68
2021/01/27 16:44:26;;;;;;;0.80;0.80;;;;;;;-0.34;85.66;96588.09;299395;218;63011;-70
2021/01/27 16:49:27;;;;;;;0.80;0.80;;;;;;;-0.28;85.44;96581.84;299395;215;63009;-68
2021/01/27 16:54:28;;;;;;;0.80;0.80;;;;;;;-0.24;85.56;96585.69;299395;226;63021;-74
2021/01/27 16:59:31;;;;;;;0.80;0.80;;;;;;;-0.24;85.49;96566.19;299395;286;63009;-59
2021/01/27 17:04:33;;;;;;;0.80;0.80;;;;;;;-0.21;85.09;96571.87;299395;243;63004;-71
2021/01/27 17:09:35;;;;;;;0.80;0.80;;;;;;;-0.16;85.21;96572.00;299395;247;63009;-71
2021/01/27 17:14:37;;;;;;;0.80;0.80;;;;;;;-0.23;84.96;96571.31;299395;292;63005;-71
2021/01/27 17:19:39;;;;;;;0.80;0.80;;;;;;;-0.11;84.98;96589.97;299395;211;63009;-59
2021/01/27 17:24:40;;;;;;;0.80;0.80;;;;;;;-0.17;85.32;96604.22;299395;220;63005;-70
2021/01/27 17:29:41;;;;;;;0.80;0.80;;;;;;;-0.20;85.51;96589.50;299395;200;63009;-69
2021/01/27 17:34:43;;;;;;;0.80;0.80;;;;;;;-0.14;85.80;96588.59;299395;272;63004;-69
2021/01/27 17:39:44;;;;;;;0.80;0.80;;;;;;;-0.18;86.24;96594.59;299395;237;63009;-69
2021/01/27 17:44:45;;;;;;;0.80;0.80;;;;;;;-0.18;86.36;96595.41;299395;203;63005;-70
2021/01/27 17:49:46;;;;;;;0.80;0.80;;;;;;;-0.17;86.41;96605.03;299395;230;63008;-68
2021/01/27 17:54:47;;;;;;;0.80;0.80;;;;;;;-0.18;86.64;96597.28;299395;218;63012;-70
2021/01/27 17:59:49;;;;;;;0.80;0.80;;;;;;;-0.19;86.75;96601.78;299395;243;63009;-70
2021/01/27 18:04:49;;;;;;;0.77;0.77;;;;;;;-0.16;87.14;96592.53;299395;228;63008;-69
2021/01/27 18:09:51;;;;;;;0.80;0.80;;;;;;;-0.10;87.20;96607.59;299395;204;63009;-73
2021/01/27 18:14:55;;;;;;;0.80;0.80;;;;;;;-0.05;86.61;96597.88;299395;257;63005;-68
2021/01/27 18:19:56;;;;;;;0.90;0.90;;;;;;;-0.08;86.92;96603.66;299417;216;63008;-69
2021/01/27 18:25:00;;;;;;;0.80;0.80;;;;;;;-0.02;87.16;96610.72;299395;206;63004;-69
2021/01/27 18:30:05;;;;;;;0.80;0.80;;;;;;;0.05;86.34;96612.44;299417;233;63009;-68
2021/01/27 18:35:09;;;;;;;0.80;0.80;;;;;;;0.04;87.18;96605.50;299418;258;63004;-68
2021/01/27 18:40:11;;;;;;;0.80;0.80;;;;;;;0.00;87.14;96615.84;299418;209;63009;-67
2021/01/27 18:45:16;;;;;;;0.80;0.80;;;;;;;0.03;87.26;96614.53;299396;197;63005;-68
2021/01/27 18:50:19;;;;;;;0.80;0.80;;;;;;;-0.02;87.35;96613.41;299396;198;63020;-69
2021/01/27 18:55:25;;;;;;;0.80;0.80;;;;;;;0.07;87.91;96610.34;299396;238;63004;-69
2021/01/27 19:00:27;;;;;;;0.80;0.80;;;;;;;0.03;87.82;96614.53;299396;215;63009;-69
2021/01/27 19:05:29;;;;;;;0.80;0.80;;;;;;;0.00;88.35;96613.94;299396;211;63010;-70
2021/01/27 19:10:32;;;;;;;0.80;0.80;;;;;;;-0.02;88.48;96618.75;299396;275;63009;-70
2021/01/27 19:15:37;;;;;;;0.82;0.82;;;;;;;-0.04;88.75;96620.00;299396;202;63005;-69
2021/01/27 19:20:39;;;;;;;0.80;0.80;;;;;;;0.05;88.83;96609.78;299397;222;63009;-69
2021/01/27 19:25:40;;;;;;;0.80;0.80;;;;;;;0.04;88.73;96610.81;299397;196;63004;-71
2021/01/27 19:30:46;;;;;;;0.80;0.80;;;;;;;0.03;88.32;96617.19;299396;223;63009;-71
2021/01/27 19:35:49;;;;;;;0.80;0.80;;;;;;;0.06;88.91;96614.06;299396;249;63005;-71
2021/01/27 19:40:50;;;;;;;0.80;0.80;;;;;;;0.07;88.47;96618.38;299396;222;63009;-73
2021/01/27 19:45:53;;;;;;;0.80;0.80;;;;;;;0.09;88.62;96624.28;299396;242;63005;-60
2021/01/27 19:50:56;;;;;;;0.80;0.80;;;;;;;0.08;88.64;96620.00;299396;248;63009;-59
2021/01/27 19:56:00;;;;;;;0.80;0.80;;;;;;;0.12;88.78;96634.50;299396;232;63004;-59
2021/01/27 20:01:01;;;;;;;0.80;0.80;;;;;;;0.12;88.82;96629.16;299418;211;63009;-71
2021/01/27 20:06:03;;;;;;;0.80;0.80;;;;;;;0.12;88.65;96645.16;299396;209;63005;-71
2021/01/27 20:11:05;;;;;;;0.80;0.80;;;;;;;0.12;88.92;96629.97;299397;213;63008;-59
2021/01/27 20:16:07;;;;;;;0.80;0.80;;;;;;;0.12;89.25;96635.31;299397;196;63004;-71
2021/01/27 20:21:08;;;;;;;0.80;0.80;;;;;;;0.18;88.85;96634.38;299395;227;63009;-72
2021/01/27 20:26:09;;;;;;;0.80;0.80;;;;;;;0.19;88.41;96635.19;299395;203;63004;-70
2021/01/27 20:31:11;;;;;;;0.80;0.80;;;;;;;0.19;88.56;96638.66;299394;216;63009;-70
2021/01/27 20:36:12;;;;;;;0.80;0.80;;;;;;;0.21;88.70;96643.78;299395;214;63005;-69
2021/01/27 20:41:14;;;;;;;0.80;0.80;;;;;;;0.24;88.42;96637.97;299395;209;63008;-70
2021/01/27 20:46:15;;;;;;;0.80;0.80;;;;;;;0.25;88.88;96647.59;299395;221;63004;-74
2021/01/27 20:51:17;;;;;;;0.80;0.80;;;;;;;0.21;88.99;96643.78;299395;198;63009;-72
2021/01/27 20:56:21;;;;;;;0.80;0.80;;;;;;;0.23;89.14;96652.34;299395;211;63004;-74
2021/01/27 21:01:22;;;;;;;0.87;0.87;;;;;;;0.24;88.86;96651.31;299417;197;63009;-73
2021/01/27 21:06:25;;;;;;;0.80;0.80;;;;;;;0.26;88.81;96654.56;299372;229;64005;-71
2021/01/27 21:11:26;;;;;;;0.80;0.80;;;;;;;0.34;88.64;96654.22;299395;197;63008;-71
2021/01/27 21:16:27;;;;;;;0.80;0.80;;;;;;;0.31;88.94;96657.34;299395;224;63013;-70
2021/01/27 21:21:28;;;;;;;0.80;0.80;;;;;;;0.35;88.41;96661.16;299395;218;63009;-70
2021/01/27 21:26:29;;;;;;;0.80;0.80;;;;;;;0.39;88.38;96672.97;299395;203;63004;-68
2021/01/27 21:31:30;;;;;;;0.80;0.80;;;;;;;0.44;88.29;96674.94;299395;222;63009;-69
2021/01/27 21:36:30;;;;;;;0.80;0.80;;;;;;;0.41;88.50;96667.41;299395;219;63005;-68
2021/01/27 21:41:31;;;;;;;0.80;0.80;;;;;;;0.44;88.93;96659.75;299395;253;63008;-70
2021/01/27 21:46:32;;;;;;;0.80;0.80;;;;;;;0.52;88.54;96656.72;299395;202;63004;-69
2021/01/27 21:51:33;;;;;;;0.80;0.80;;;;;;;0.49;88.35;96659.88;299395;202;63009;-68
2021/01/27 21:56:37;;;;;;;0.80;0.80;;;;;;;0.48;88.43;96660.91;299394;285;64004;-70
2021/01/27 22:01:39;;;;;;;0.80;0.80;;;;;;;0.50;88.42;96669.50;299417;233;63009;-68
2021/01/27 22:06:40;;;;;;;0.80;0.80;;;;;;;0.63;88.08;96682.59;299373;266;63005;-69
2021/01/27 22:11:42;;;;;;;0.80;0.80;;;;;;;0.57;88.56;96686.19;299395;231;63008;-68
2021/01/27 22:16:43;;;;;;;0.80;0.80;;;;;;;0.62;88.05;96686.31;299395;243;63004;-70
2021/01/27 22:21:44;;;;;;;0.80;0.80;;;;;;;0.62;88.39;96677.50;299395;240;63009;-68
2021/01/27 22:26:45;;;;;;;0.80;0.80;;;;;;;0.68;88.55;96684.56;299395;220;63005;-71
2021/01/27 22:31:48;;;;;;;0.80;0.80;;;;;;;0.68;88.14;96676.56;299395;244;63009;-69
2021/01/27 22:36:49;;;;;;;0.80;0.80;;;;;;;0.62;88.24;96667.63;299395;218;63005;-70
2021/01/27 22:41:50;;;;;;;0.80;0.80;;;;;;;0.62;88.35;96661.47;299395;198;63009;-55
2021/01/27 22:46:52;;;;;;;0.80;0.80;;;;;;;0.63;88.59;96674.59;299395;202;63004;-68
2021/01/27 22:51:54;;;;;;;0.75;0.75;;;;;;;0.61;88.64;96682.03;299395;200;63009;-62
2021/01/27 22:56:55;;;;;;;0.80;0.80;;;;;;;0.68;88.47;96668.56;299395;199;63005;-67
2021/01/27 23:01:56;;;;;;;0.70;0.70;;;;;;;0.63;88.60;96660.44;299395;250;63004;-66
2021/01/27 23:06:57;;;;;;;0.80;0.80;;;;;;;0.64;88.77;96670.06;299395;202;63005;-65
2021/01/27 23:11:58;;;;;;;0.80;0.80;;;;;;;0.74;88.13;96664.09;299395;252;63009;-63
2021/01/27 23:16:59;;;;;;;0.80;0.80;;;;;;;0.81;88.06;96656.78;299395;203;63004;-65
2021/01/27 23:22:00;;;;;;;0.80;0.80;;;;;;;0.71;88.09;96654.69;299395;203;63009;-67
2021/01/27 23:27:01;;;;;;;0.80;0.80;;;;;;;0.76;88.00;96654.00;299395;198;63005;-65
2021/01/27 23:32:02;;;;;;;0.80;0.80;;;;;;;0.74;88.29;96653.41;299394;231;64009;-67
2021/01/27 23:37:03;;;;;;;0.80;0.80;;;;;;;0.78;87.77;96649.22;299395;199;63005;-64
2021/01/27 23:42:05;;;;;;;0.80;0.80;;;;;;;0.83;87.86;96638.66;299395;263;63009;-65
2021/01/27 23:47:06;;;;;;;0.80;0.80;;;;;;;0.82;87.48;96629.81;299395;198;63008;-66
2021/01/27 23:52:06;;;;;;;0.80;0.80;;;;;;;0.86;87.56;96632.84;299395;224;63009;-63
2021/01/27 23:57:08;;;;;;;0.80;0.80;;;;;;;0.74;87.91;96621.38;299395;279;63012;-64
